Bend, OR (97702)

6:39 AM PDT on August 26, 2016 (GMT -0700)
HADS | | Change Station

Elev 3899 ft 43.99 °N, 121.38 °W | Updated 1 hour ago

Clear
Clear
43.0 °F
Feels Like 43.0 °F
N
0.0
Wind Variable Wind from North
Gusts 0.0 mph

Today
High -- | Low -- °F
--% Chance of Precip.
Yesterday
High -- | Low -- °F
Precip. -- in
Pressure 30.01 in
Visibility 10.0 miles
Clouds Clear
Dew Point Not available.
Humidity Not available.
Rainfall in
Snow Depth Not available.
6:22 AM 7:50 PM
Waning Crescent, 34% visible
METAR KRDM 261256Z 16004KT 10SM CLR 07/M03 A3006 RMK AO2 SLP160 T00671033
Pressure 30.01 in
Visibility 10.0 miles
Clouds Clear
Dew Point Not available.
Humidity Not available.
Rainfall in
Snow Depth Not available.
6:22 AM 7:50 PM
Waning Crescent, 34% visible
METAR KRDM 261256Z 16004KT 10SM CLR 07/M03 A3006 RMK AO2 SLP160 T00671033

10-Day Weather Forecast

Almanac

Astronomy

Aug. 26, 2016 Rise Set
Actual Time
Civil Twilight
Nautical Twilight
Astronomical Twilight
Moon
Length of Visible Light
Length of Day
Tomorrow will be .
, % of the Moon is Illuminated

Today's Extremes

State Highs State Lows

Community

WunderPhotos

Upload Photos

1,935,084 photos uploaded!

WunderBlog® & News

Nearby

Air Quality

  Air Quality AQ Index Pollutant
Not available.

Snow Depth

Station Depth Elevation

Earthquake Activity

City Distance Mag. Time & Date
Minimum magnitude displayed is 2.5.

Coastal Water Temperatures

Place Temperature

Stations

Nearby Weather Stations

Station Location Temp. Windchill Dew Point Humidity Wind Precip. Elev Updated Type
                   

Watches & Warnings

There are currently no watches in effect.